createdAt,value
2023-01-27T00:03:39.100Z,0.66
2023-01-27T00:07:45.839Z,0.65
2023-01-27T00:12:05.973Z,0.49
2023-01-27T00:16:08.079Z,0.52
2023-01-27T00:20:11.182Z,0.60
2023-01-27T00:24:32.045Z,0.59
2023-01-27T00:28:38.622Z,0.60
2023-01-27T00:32:59.101Z,0.54
2023-01-27T00:37:01.003Z,0.53
2023-01-27T00:41:21.327Z,0.55
2023-01-27T00:45:41.743Z,0.58
2023-01-27T00:49:43.647Z,0.56
2023-01-27T00:53:46.129Z,0.55
2023-01-27T00:57:47.883Z,0.59
2023-01-27T01:01:49.930Z,0.57
2023-01-27T01:05:52.548Z,0.65
2023-01-27T01:09:54.325Z,0.73
2023-01-27T01:13:57.265Z,0.77
2023-01-27T01:17:59.247Z,0.74
2023-01-27T01:22:00.894Z,0.75
2023-01-27T01:26:02.929Z,0.80
2023-01-27T01:30:05.096Z,0.73
2023-01-27T01:34:07.321Z,0.67
2023-01-27T01:38:09.884Z,0.65
2023-01-27T01:42:11.644Z,0.63
2023-01-27T01:46:14.092Z,0.73
2023-01-27T01:50:16.232Z,0.58
2023-01-27T01:54:38.665Z,0.61
2023-01-27T02:02:46.700Z,0.61
2023-01-27T02:07:11.176Z,0.62
2023-01-27T02:11:13.368Z,0.58
2023-01-27T02:15:15.935Z,0.59
2023-01-27T02:19:53.814Z,0.50
2023-01-27T02:24:01.556Z,0.46
2023-01-27T02:28:05.185Z,0.60
2023-01-27T02:32:06.953Z,0.56
2023-01-27T02:36:13.343Z,0.53
2023-01-27T02:40:17.265Z,0.58
2023-01-27T02:44:19.440Z,0.55
2023-01-27T02:48:21.411Z,0.56
2023-01-27T02:52:23.475Z,0.54
2023-01-27T02:56:26.955Z,0.63
2023-01-27T03:00:31.084Z,0.52
2023-01-27T03:04:33.195Z,0.45
2023-01-27T03:08:35.205Z,0.42
2023-01-27T03:12:39.937Z,0.57
2023-01-27T03:17:00.402Z,0.68
2023-01-27T03:21:04.925Z,0.62
2023-01-27T03:25:07.570Z,0.61
2023-01-27T03:29:28.883Z,0.56
2023-01-27T03:33:31.462Z,0.78
2023-01-27T03:37:55.995Z,0.73
2023-01-27T03:42:16.384Z,0.74
2023-01-27T03:46:19.086Z,0.68
2023-01-27T03:50:37.364Z,0.65
2023-01-27T03:54:39.371Z,0.67
2023-01-27T03:58:42.102Z,0.58
2023-01-27T04:03:02.801Z,0.49
2023-01-27T04:07:04.812Z,0.51
2023-01-27T04:11:25.498Z,0.42
2023-01-27T04:15:27.481Z,0.40
2023-01-27T04:19:30.388Z,0.46
2023-01-27T04:23:32.323Z,0.49
2023-01-27T04:27:34.505Z,0.42
2023-01-27T04:31:36.513Z,0.45
2023-01-27T04:35:38.851Z,0.36
2023-01-27T04:39:41.932Z,0.39
2023-01-27T04:43:43.896Z,0.25
2023-01-27T04:47:45.601Z,0.23
2023-01-27T04:51:47.811Z,0.27
2023-01-27T04:55:50.819Z,0.28
2023-01-27T04:59:52.413Z,0.24
2023-01-27T05:03:55.439Z,0.37
2023-01-27T05:07:57.407Z,0.32
2023-01-27T05:11:59.329Z,0.27
2023-01-27T05:16:08.540Z,0.19
2023-01-27T05:20:10.858Z,0.06
2023-01-27T05:24:12.926Z,0.02
2023-01-27T05:28:14.995Z,-0.16
2023-01-27T05:32:16.899Z,-0.24
2023-01-27T05:36:21.495Z,-0.30
2023-01-27T05:40:23.213Z,-0.32
2023-01-27T05:44:25.206Z,-0.48
2023-01-27T05:48:27.293Z,-0.48
2023-01-27T05:52:29.003Z,-0.53
2023-01-27T05:56:30.997Z,-0.57
2023-01-27T06:00:33.315Z,-0.53
2023-01-27T06:04:35.422Z,-0.62
2023-01-27T06:08:40.021Z,-0.50
2023-01-27T06:12:41.666Z,-0.51
2023-01-27T06:16:44.152Z,-0.52
2023-01-27T06:20:46.796Z,-0.72
2023-01-27T06:24:48.488Z,-0.91
2023-01-27T06:28:50.497Z,-0.51
2023-01-27T06:32:52.548Z,-0.32
2023-01-27T06:36:54.484Z,-0.16
2023-01-27T06:40:56.538Z,-0.24
2023-01-27T06:44:58.222Z,-0.18
2023-01-27T06:49:00.162Z,-0.12
2023-01-27T06:53:05.210Z,-0.05
2023-01-27T06:57:09.480Z,-0.01
2023-01-27T07:01:11.912Z,0.14
2023-01-27T07:05:14.014Z,0.26
2023-01-27T07:09:15.699Z,0.27
2023-01-27T07:13:18.827Z,0.40
2023-01-27T07:17:20.870Z,0.37
2023-01-27T07:21:22.999Z,0.51
2023-01-27T07:25:25.722Z,0.55
2023-01-27T07:29:27.865Z,0.59
2023-01-27T07:33:29.851Z,0.65
2023-01-27T07:37:32.104Z,0.75
2023-01-27T07:41:34.536Z,0.82
2023-01-27T07:45:37.286Z,0.95
2023-01-27T07:49:39.265Z,0.99
2023-01-27T07:53:41.923Z,1.10
2023-01-27T07:57:43.881Z,1.13
2023-01-27T08:01:48.118Z,1.20
2023-01-27T08:05:50.900Z,1.37
2023-01-27T08:09:54.881Z,1.39
2023-01-27T08:13:56.849Z,1.51
2023-01-27T08:17:59.571Z,1.65
2023-01-27T08:22:01.548Z,1.67
2023-01-27T08:26:06.428Z,1.13
2023-01-27T08:30:09.216Z,1.22
2023-01-27T08:34:12.025Z,1.72
2023-01-27T08:38:16.799Z,1.92
2023-01-27T08:42:18.954Z,2.05
2023-01-27T08:46:21.302Z,2.06
2023-01-27T08:50:23.334Z,2.11
2023-01-27T08:54:25.370Z,2.16
2023-01-27T08:58:27.512Z,2.17
2023-01-27T09:02:29.601Z,2.08
2023-01-27T09:06:31.693Z,1.97
2023-01-27T09:10:37.886Z,2.08
2023-01-27T09:14:40.254Z,2.10
2023-01-27T09:18:42.497Z,2.02
2023-01-27T09:22:44.562Z,2.06
2023-01-27T09:26:46.747Z,2.22
2023-01-27T09:30:49.751Z,2.11
2023-01-27T09:34:51.885Z,2.36
2023-01-27T09:39:00.231Z,2.40
2023-01-27T09:43:21.001Z,2.67
2023-01-27T09:47:47.615Z,2.74
2023-01-27T09:52:08.343Z,2.92
2023-01-27T09:56:38.548Z,2.99
2023-01-27T10:01:18.727Z,2.86
2023-01-27T10:05:33.271Z,3.10
2023-01-27T10:10:09.299Z,3.16
2023-01-27T10:14:39.535Z,3.34
2023-01-27T10:19:33.814Z,3.53
2023-01-27T10:24:14.990Z,3.58
2023-01-27T10:28:22.580Z,3.45
2023-01-27T10:32:34.879Z,3.48
2023-01-27T10:36:55.998Z,3.37
2023-01-27T10:41:16.949Z,3.26
2023-01-27T10:45:27.816Z,3.16
2023-01-27T10:49:38.198Z,3.12
2023-01-27T10:53:57.508Z,2.96
2023-01-27T10:58:25.637Z,2.92
2023-01-27T11:02:45.752Z,2.92
2023-01-27T11:06:49.972Z,2.93
2023-01-27T11:11:24.184Z,2.54
2023-01-27T11:15:34.352Z,2.64
2023-01-27T11:19:55.578Z,2.55
2023-01-27T11:24:06.210Z,2.60
2023-01-27T11:28:30.079Z,2.74
2023-01-27T11:32:53.445Z,2.72
2023-01-27T11:36:55.567Z,2.74
2023-01-27T11:40:58.353Z,2.72
2023-01-27T11:45:01.653Z,2.58
2023-01-27T11:49:04.320Z,2.65
2023-01-27T11:53:22.004Z,2.72
2023-01-27T11:57:26.173Z,2.86
2023-01-27T12:02:15.497Z,2.76
2023-01-27T12:06:29.663Z,2.96
2023-01-27T12:10:31.644Z,2.82
2023-01-27T12:14:33.682Z,2.59
2023-01-27T12:18:47.220Z,2.84
2023-01-27T12:22:54.396Z,2.79
2023-01-27T12:26:57.379Z,2.82
2023-01-27T12:31:12.505Z,2.63
2023-01-27T12:35:32.797Z,2.65
2023-01-27T12:39:50.330Z,2.64
2023-01-27T12:43:57.227Z,2.83
2023-01-27T12:48:15.948Z,2.39
2023-01-27T12:52:18.986Z,2.32
2023-01-27T12:56:23.709Z,2.17
2023-01-27T13:00:26.246Z,2.71
2023-01-27T13:04:29.035Z,2.68
2023-01-27T13:08:33.488Z,2.62
2023-01-27T13:12:49.841Z,2.45
2023-01-27T13:16:54.590Z,2.61
2023-01-27T13:21:07.466Z,2.68
2023-01-27T13:25:17.664Z,2.63
2023-01-27T13:29:26.880Z,2.40
2023-01-27T13:33:50.127Z,2.38
2023-01-27T13:38:19.791Z,2.27
2023-01-27T13:42:24.628Z,2.14
2023-01-27T13:46:30.658Z,2.09
2023-01-27T13:50:37.845Z,2.03
2023-01-27T13:54:39.844Z,2.10
2023-01-27T13:58:57.493Z,2.09
2023-01-27T14:03:24.511Z,2.00
2023-01-27T14:07:29.823Z,2.02
2023-01-27T14:11:43.011Z,2.03
2023-01-27T14:16:16.389Z,2.05
2023-01-27T14:20:24.865Z,2.11
2023-01-27T14:24:29.560Z,1.84
2023-01-27T14:29:12.558Z,1.73
2023-01-27T14:33:27.611Z,1.73
2023-01-27T14:37:32.723Z,1.68
2023-01-27T14:41:44.079Z,1.81
2023-01-27T14:45:53.685Z,1.95
2023-01-27T14:50:04.595Z,1.94
2023-01-27T14:54:27.570Z,1.68
2023-01-27T14:58:39.651Z,1.76
2023-01-27T15:02:51.093Z,1.72
2023-01-27T15:07:05.323Z,1.72
2023-01-27T15:11:26.797Z,1.76
2023-01-27T15:15:51.571Z,1.58
2023-01-27T15:20:25.186Z,1.57
2023-01-27T15:24:35.920Z,1.54
2023-01-27T15:28:41.488Z,1.56
2023-01-27T15:32:43.523Z,1.65
2023-01-27T15:37:09.585Z,1.58
2023-01-27T15:41:14.852Z,1.58
2023-01-27T15:45:33.816Z,1.65
2023-01-27T15:49:43.906Z,1.51
2023-01-27T15:53:50.941Z,1.55
2023-01-27T15:58:02.880Z,1.60
2023-01-27T16:02:17.335Z,1.69
2023-01-27T16:06:25.106Z,1.56
2023-01-27T16:10:31.496Z,1.53
2023-01-27T16:14:44.474Z,1.52
2023-01-27T16:18:57.493Z,1.61
2023-01-27T16:23:07.197Z,1.51
2023-01-27T16:27:29.402Z,1.48
2023-01-27T16:31:32.513Z,1.57
2023-01-27T16:35:44.136Z,1.59
2023-01-27T16:40:01.103Z,1.57
2023-01-27T16:44:22.319Z,1.55
2023-01-27T16:48:30.086Z,1.51
2023-01-27T16:52:41.826Z,1.53
2023-01-27T16:56:49.723Z,1.38
2023-01-27T17:00:52.989Z,1.47
2023-01-27T17:04:59.095Z,1.42
2023-01-27T17:09:02.457Z,1.45
2023-01-27T17:13:04.400Z,1.40
2023-01-27T17:17:19.356Z,1.33
2023-01-27T17:21:39.105Z,1.38
2023-01-27T17:25:41.717Z,1.45
2023-01-27T17:29:46.337Z,1.46
2023-01-27T17:33:50.564Z,1.41
2023-01-27T17:38:05.234Z,1.33
2023-01-27T17:42:08.065Z,1.22
2023-01-27T17:46:19.523Z,1.36
2023-01-27T17:50:24.607Z,1.17
2023-01-27T17:54:30.220Z,1.18
2023-01-27T17:58:32.374Z,1.09
2023-01-27T18:02:39.025Z,1.05
2023-01-27T18:06:42.633Z,1.12
2023-01-27T18:10:44.834Z,1.10
2023-01-27T18:14:46.941Z,1.03
2023-01-27T18:18:49.872Z,1.03
2023-01-27T18:22:52.046Z,0.94
2023-01-27T18:26:54.104Z,0.97
2023-01-27T18:30:56.186Z,1.00
2023-01-27T18:34:58.921Z,1.02
2023-01-27T18:39:29.001Z,1.00
2023-01-27T18:43:30.871Z,0.89
2023-01-27T18:47:34.897Z,0.92
2023-01-27T18:51:36.834Z,1.00
2023-01-27T18:55:39.176Z,0.88
2023-01-27T18:59:41.264Z,0.86
2023-01-27T19:03:42.989Z,0.85
2023-01-27T19:07:45.149Z,1.00
2023-01-27T19:11:46.980Z,1.05
2023-01-27T19:15:51.505Z,1.03
2023-01-27T19:19:54.455Z,0.98
2023-01-27T19:23:56.724Z,0.94
2023-01-27T19:28:04.421Z,0.76
2023-01-27T19:32:07.170Z,0.91
2023-01-27T19:36:12.046Z,0.89
2023-01-27T19:40:17.770Z,0.94
2023-01-27T19:44:19.879Z,1.02
2023-01-27T19:48:24.433Z,1.04
2023-01-27T19:52:26.637Z,1.07
2023-01-27T19:56:32.558Z,1.14
2023-01-27T20:00:36.873Z,0.97
2023-01-27T20:04:38.920Z,1.06
2023-01-27T20:08:40.943Z,1.15
2023-01-27T20:12:43.391Z,1.14
2023-01-27T20:16:46.508Z,1.13
2023-01-27T20:20:48.448Z,1.21
2023-01-27T20:24:50.708Z,1.15
2023-01-27T20:28:52.673Z,1.11
2023-01-27T20:32:56.537Z,1.18
2023-01-27T20:36:58.663Z,1.11
2023-01-27T20:41:09.056Z,1.07
2023-01-27T20:45:12.264Z,1.17
2023-01-27T20:49:14.466Z,1.16
2023-01-27T20:53:16.405Z,1.19
2023-01-27T20:57:20.998Z,1.10
2023-01-27T21:01:23.844Z,1.02
2023-01-27T21:05:27.011Z,1.04
2023-01-27T21:09:28.961Z,1.01
2023-01-27T21:13:31.112Z,1.06
2023-01-27T21:17:33.082Z,1.14
2023-01-27T21:21:35.074Z,1.11
2023-01-27T21:25:37.359Z,1.03
2023-01-27T21:29:40.754Z,0.98
2023-01-27T21:33:48.471Z,1.04
2023-01-27T21:37:50.618Z,1.05
2023-01-27T21:41:52.538Z,1.07
2023-01-27T21:46:01.185Z,0.98
2023-01-27T21:50:04.385Z,1.01
2023-01-27T21:54:06.544Z,0.97
2023-01-27T21:58:08.196Z,0.94
2023-01-27T22:02:15.573Z,0.99
2023-01-27T22:06:17.373Z,0.97
2023-01-27T22:10:23.258Z,0.89
2023-01-27T22:14:25.222Z,0.93
2023-01-27T22:18:27.516Z,0.96
2023-01-27T22:22:29.123Z,0.94
2023-01-27T22:26:31.116Z,0.84
2023-01-27T22:30:33.220Z,0.83
2023-01-27T22:34:35.267Z,0.71
2023-01-27T22:38:38.745Z,0.74
2023-01-27T22:42:40.984Z,0.74
2023-01-27T22:46:43.865Z,0.81
2023-01-27T22:50:45.905Z,0.77
2023-01-27T22:54:48.103Z,0.76
2023-01-27T22:58:50.146Z,0.69
2023-01-27T23:02:52.125Z,0.74
2023-01-27T23:06:54.200Z,0.66
2023-01-27T23:11:00.991Z,0.63
2023-01-27T23:15:03.059Z,0.62
2023-01-27T23:19:05.130Z,0.62
2023-01-27T23:23:08.561Z,0.62
2023-01-27T23:27:10.549Z,0.69
2023-01-27T23:31:13.662Z,0.69
2023-01-27T23:35:15.934Z,0.66
2023-01-27T23:39:18.152Z,0.67
2023-01-27T23:43:23.820Z,0.61
2023-01-27T23:47:25.834Z,0.59
2023-01-27T23:51:27.777Z,0.64
2023-01-27T23:55:29.820Z,0.56
2023-01-27T23:59:31.826Z,0.54
